Time;durP1;ratioP1;P1;durP2;ratioP2;P2;SDS_P1;SDS_P2;PMS_P1;PMS_P2;Temp;Humidity;BMP_temperature;BMP_pressure;BME280_temperature;BME280_humidity;BME280_pressure;Samples;Min_cycle;Max_cycle;Signal;HPM_P1;HPM_P2
2020/07/02 00:01:05;;;;;;;2.21;1.30;;;;;;;21.74;66.20;99841.11;;;;-54
2020/07/02 00:04:05;;;;;;;1.49;1.30;;;;;;;21.73;66.15;99846.10;;;;-54
2020/07/02 00:07:05;;;;;;;1.90;1.46;;;;;;;21.73;66.14;99856.21;;;;-54
2020/07/02 00:10:05;;;;;;;1.93;1.41;;;;;;;21.72;66.22;99856.13;;;;-54
2020/07/02 00:13:05;;;;;;;1.40;1.30;;;;;;;21.71;66.21;99854.10;;;;-54
2020/07/02 00:16:05;;;;;;;1.41;1.31;;;;;;;21.70;66.24;99852.14;;;;-54
2020/07/02 00:19:05;;;;;;;2.17;1.31;;;;;;;21.71;66.18;99856.73;;;;-54
2020/07/02 00:22:05;;;;;;;1.49;1.39;;;;;;;21.70;66.18;99861.44;;;;-54
2020/07/02 00:25:05;;;;;;;1.96;1.30;;;;;;;21.69;66.19;99864.64;;;;-54
2020/07/02 00:28:05;;;;;;;1.31;1.23;;;;;;;21.70;66.22;99867.48;;;;-54
2020/07/02 00:31:05;;;;;;;2.18;1.31;;;;;;;21.69;66.22;99864.08;;;;-54
2020/07/02 00:34:05;;;;;;;1.50;1.40;;;;;;;21.68;66.19;99863.34;;;;-54
2020/07/02 00:37:05;;;;;;;1.33;1.23;;;;;;;21.67;66.20;99857.58;;;;-54
2020/07/02 00:40:05;;;;;;;1.92;1.30;;;;;;;21.67;66.21;99857.09;;;;-53
2020/07/02 00:43:05;;;;;;;1.33;1.23;;;;;;;21.67;66.29;99859.70;;;;-54
2020/07/02 00:46:05;;;;;;;1.28;1.23;;;;;;;21.66;66.27;99860.59;;;;-54
2020/07/02 00:49:05;;;;;;;1.75;1.30;;;;;;;21.66;66.18;99861.23;;;;-54
2020/07/02 00:52:05;;;;;;;1.43;1.30;;;;;;;21.66;66.22;99860.77;;;;-54
2020/07/02 00:55:05;;;;;;;1.39;1.27;;;;;;;21.66;66.23;99864.11;;;;-54
2020/07/02 00:58:05;;;;;;;1.40;1.30;;;;;;;21.65;66.23;99867.95;;;;-54
2020/07/02 01:01:05;;;;;;;1.40;1.30;;;;;;;21.65;66.19;99870.41;;;;-54
2020/07/02 01:04:05;;;;;;;1.38;1.28;;;;;;;21.64;66.26;99873.69;;;;-54
2020/07/02 01:07:05;;;;;;;1.58;1.31;;;;;;;21.65;66.27;99877.92;;;;-54
2020/07/02 01:10:05;;;;;;;1.45;1.35;;;;;;;21.64;66.22;99877.77;;;;-53
2020/07/02 01:13:05;;;;;;;1.40;1.30;;;;;;;21.64;66.25;99875.16;;;;-54
2020/07/02 01:16:05;;;;;;;1.40;1.30;;;;;;;21.64;66.21;99871.06;;;;-54
2020/07/02 01:19:05;;;;;;;1.47;1.35;;;;;;;21.63;66.22;99868.95;;;;-53
2020/07/02 01:22:05;;;;;;;1.43;1.30;;;;;;;21.63;66.22;99867.74;;;;-54
2020/07/02 01:25:05;;;;;;;1.35;1.25;;;;;;;21.63;66.25;99871.16;;;;-53
2020/07/02 01:28:05;;;;;;;1.40;1.30;;;;;;;21.63;66.18;99871.00;;;;-54
2020/07/02 01:31:05;;;;;;;1.40;1.30;;;;;;;21.63;66.21;99864.24;;;;-54
2020/07/02 01:34:05;;;;;;;1.40;1.30;;;;;;;21.62;66.21;99860.83;;;;-54
2020/07/02 01:37:05;;;;;;;1.41;1.30;;;;;;;21.63;66.18;99854.55;;;;-54
2020/07/02 01:40:05;;;;;;;1.36;1.26;;;;;;;21.62;66.15;99848.66;;;;-54
2020/07/02 01:43:04;;;;;;;1.73;1.20;;;;;;;21.62;66.15;99852.90;;;;-54
2020/07/02 01:46:05;;;;;;;1.36;1.23;;;;;;;21.62;66.19;99849.40;;;;-53
2020/07/02 01:49:05;;;;;;;1.39;1.20;;;;;;;21.61;66.12;99853.66;;;;-54
2020/07/02 01:52:05;;;;;;;1.45;1.35;;;;;;;21.61;66.13;99855.45;;;;-54
2020/07/02 01:55:05;;;;;;;1.39;1.29;;;;;;;21.61;66.20;99857.56;;;;-54
2020/07/02 01:58:05;;;;;;;1.75;1.29;;;;;;;21.60;66.16;99858.57;;;;-54
2020/07/02 02:01:05;;;;;;;1.40;1.30;;;;;;;21.60;66.14;99854.49;;;;-54
2020/07/02 02:04:05;;;;;;;1.31;1.21;;;;;;;21.60;66.17;99855.96;;;;-54
2020/07/02 02:07:05;;;;;;;1.31;1.21;;;;;;;21.59;66.15;99853.75;;;;-54
2020/07/02 02:10:05;;;;;;;1.40;1.30;;;;;;;21.59;66.17;99856.52;;;;-53
2020/07/02 02:13:05;;;;;;;1.40;1.30;;;;;;;21.59;66.15;99853.75;;;;-54
2020/07/02 02:16:05;;;;;;;1.68;1.27;;;;;;;21.59;66.14;99850.81;;;;-54
2020/07/02 02:19:05;;;;;;;1.40;1.30;;;;;;;21.59;66.18;99846.02;;;;-54
2020/07/02 02:22:04;;;;;;;2.05;1.30;;;;;;;21.59;66.12;99839.99;;;;-54
2020/07/02 02:25:05;;;;;;;1.30;1.20;;;;;;;21.59;66.14;99844.47;;;;-53
2020/07/02 02:28:05;;;;;;;1.34;1.27;;;;;;;21.59;66.12;99848.78;;;;-54
2020/07/02 02:31:05;;;;;;;1.31;1.20;;;;;;;21.59;66.14;99855.05;;;;-54
2020/07/02 02:34:05;;;;;;;1.40;1.30;;;;;;;21.59;66.15;99862.66;;;;-54
2020/07/02 02:37:05;;;;;;;1.34;1.24;;;;;;;21.59;66.14;99857.60;;;;-54
2020/07/02 02:40:05;;;;;;;1.31;1.18;;;;;;;21.58;66.08;99861.94;;;;-52
2020/07/02 02:43:04;;;;;;;1.53;1.33;;;;;;;21.58;66.03;99864.94;;;;-54
2020/07/02 02:46:05;;;;;;;1.40;1.30;;;;;;;21.57;66.10;99868.45;;;;-54
2020/07/02 02:49:05;;;;;;;1.37;1.28;;;;;;;21.57;66.08;99869.76;;;;-54
2020/07/02 02:52:05;;;;;;;1.30;1.20;;;;;;;21.58;66.09;99871.14;;;;-53
2020/07/02 02:55:05;;;;;;;1.42;1.30;;;;;;;21.57;66.10;99869.38;;;;-53
2020/07/02 02:58:05;;;;;;;1.30;1.20;;;;;;;21.57;66.09;99871.16;;;;-52
2020/07/02 03:01:05;;;;;;;1.16;1.14;;;;;;;21.57;66.10;99874.32;;;;-52
2020/07/02 03:04:05;;;;;;;1.35;1.25;;;;;;;21.57;66.07;99897.33;;;;-52
2020/07/02 03:07:05;;;;;;;1.41;1.30;;;;;;;21.57;66.09;99899.45;;;;-52
2020/07/02 03:10:05;;;;;;;1.29;1.20;;;;;;;21.56;66.05;99900.20;;;;-51
2020/07/02 03:13:05;;;;;;;1.46;1.36;;;;;;;21.57;66.11;99906.06;;;;-51
2020/07/02 03:16:05;;;;;;;1.30;1.20;;;;;;;21.56;66.06;99902.22;;;;-51
2020/07/02 03:19:05;;;;;;;1.31;1.20;;;;;;;21.55;66.06;99899.55;;;;-52
2020/07/02 03:22:05;;;;;;;1.22;1.20;;;;;;;21.55;66.08;99907.61;;;;-52
2020/07/02 03:25:05;;;;;;;1.48;1.30;;;;;;;21.55;66.09;99914.63;;;;-52
2020/07/02 03:28:05;;;;;;;2.21;1.29;;;;;;;21.55;66.04;99911.70;;;;-52
2020/07/02 03:31:05;;;;;;;1.32;1.22;;;;;;;21.55;66.06;99914.72;;;;-51
2020/07/02 03:34:05;;;;;;;1.54;1.44;;;;;;;21.54;66.06;99925.41;;;;-52
2020/07/02 03:37:04;;;;;;;1.29;1.20;;;;;;;21.55;66.14;99935.44;;;;-52
2020/07/02 03:40:04;;;;;;;1.33;1.25;;;;;;;21.54;66.09;99928.77;;;;-52
2020/07/02 03:43:05;;;;;;;1.40;1.30;;;;;;;21.54;66.14;99927.44;;;;-52
2020/07/02 03:46:05;;;;;;;1.43;1.30;;;;;;;21.54;66.08;99929.23;;;;-51
2020/07/02 03:49:05;;;;;;;1.10;1.10;;;;;;;21.53;66.07;99923.61;;;;-52
2020/07/02 03:52:05;;;;;;;1.35;1.25;;;;;;;21.53;66.09;99911.22;;;;-51
2020/07/02 03:55:05;;;;;;;1.37;1.27;;;;;;;21.53;66.05;99910.50;;;;-52
2020/07/02 03:58:05;;;;;;;1.28;1.20;;;;;;;21.53;66.07;99914.26;;;;-52
2020/07/02 04:01:05;;;;;;;1.11;1.11;;;;;;;21.53;66.06;99910.02;;;;-52
2020/07/02 04:04:05;;;;;;;1.31;1.21;;;;;;;21.53;66.05;99911.00;;;;-51
2020/07/02 04:07:05;;;;;;;1.33;1.23;;;;;;;21.53;66.08;99912.30;;;;-52
2020/07/02 04:10:05;;;;;;;1.41;1.31;;;;;;;21.53;66.06;99915.23;;;;-51
2020/07/02 04:13:05;;;;;;;1.30;1.20;;;;;;;21.53;66.12;99923.06;;;;-52
2020/07/02 04:16:05;;;;;;;1.29;1.25;;;;;;;21.52;66.06;99925.17;;;;-52
2020/07/02 04:19:05;;;;;;;1.25;1.20;;;;;;;21.52;66.07;99928.78;;;;-51
2020/07/02 04:22:05;;;;;;;1.30;1.20;;;;;;;21.52;66.05;99935.63;;;;-52
2020/07/02 04:25:05;;;;;;;1.36;1.26;;;;;;;21.52;66.09;99938.71;;;;-52
2020/07/02 04:28:05;;;;;;;1.23;1.20;;;;;;;21.52;66.12;99947.75;;;;-52
2020/07/02 04:31:05;;;;;;;1.40;1.30;;;;;;;21.52;66.09;99962.19;;;;-51
2020/07/02 04:34:05;;;;;;;1.51;1.23;;;;;;;21.52;66.08;99968.30;;;;-50
2020/07/02 04:37:05;;;;;;;1.40;1.30;;;;;;;21.52;66.07;99971.23;;;;-52
2020/07/02 04:40:05;;;;;;;1.40;1.30;;;;;;;21.51;66.10;99961.23;;;;-52
2020/07/02 04:43:05;;;;;;;1.45;1.35;;;;;;;21.51;66.05;99964.48;;;;-52
2020/07/02 04:46:05;;;;;;;1.40;1.30;;;;;;;21.51;66.09;99961.06;;;;-51
2020/07/02 04:49:05;;;;;;;1.20;1.20;;;;;;;21.51;66.05;99967.02;;;;-51
2020/07/02 04:52:05;;;;;;;1.39;1.30;;;;;;;21.51;66.09;99965.39;;;;-52
2020/07/02 04:55:05;;;;;;;1.37;1.27;;;;;;;21.51;66.10;99970.03;;;;-51
2020/07/02 04:58:05;;;;;;;1.29;1.23;;;;;;;21.50;66.14;99969.64;;;;-52
2020/07/02 05:01:05;;;;;;;1.30;1.20;;;;;;;21.50;66.10;99968.83;;;;-51
2020/07/02 05:04:05;;;;;;;1.44;1.21;;;;;;;21.51;66.09;99971.52;;;;-52
2020/07/02 05:07:05;;;;;;;1.40;1.30;;;;;;;21.50;66.15;99972.02;;;;-52
2020/07/02 05:10:05;;;;;;;1.29;1.20;;;;;;;21.49;66.10;99967.59;;;;-52
2020/07/02 05:13:05;;;;;;;1.29;1.20;;;;;;;21.49;66.07;99965.23;;;;-51
2020/07/02 05:16:05;;;;;;;1.28;1.21;;;;;;;21.49;66.09;99975.09;;;;-52
2020/07/02 05:19:05;;;;;;;1.49;1.23;;;;;;;21.49;66.08;99977.31;;;;-51
2020/07/02 05:22:05;;;;;;;1.30;1.20;;;;;;;21.49;66.09;99989.12;;;;-52
2020/07/02 05:25:05;;;;;;;1.27;1.20;;;;;;;21.48;66.10;99998.92;;;;-52
2020/07/02 05:28:05;;;;;;;1.33;1.23;;;;;;;21.48;66.11;100000.24;;;;-52
2020/07/02 05:31:04;;;;;;;1.41;1.31;;;;;;;21.48;66.12;99997.31;;;;-52
2020/07/02 05:34:05;;;;;;;1.68;1.20;;;;;;;21.48;66.10;99992.73;;;;-51
2020/07/02 05:37:05;;;;;;;1.39;1.29;;;;;;;21.48;66.13;99987.36;;;;-52
2020/07/02 05:40:05;;;;;;;1.10;1.10;;;;;;;21.48;66.15;99991.67;;;;-52
2020/07/02 05:43:05;;;;;;;1.36;1.26;;;;;;;21.48;66.17;99985.78;;;;-51
2020/07/02 05:46:05;;;;;;;1.17;1.17;;;;;;;21.48;66.12;99990.35;;;;-51
2020/07/02 05:49:04;;;;;;;1.35;1.25;;;;;;;21.47;66.13;99995.66;;;;-52
2020/07/02 05:52:05;;;;;;;1.18;1.18;;;;;;;21.47;66.13;99997.45;;;;-52
2020/07/02 05:55:05;;;;;;;1.19;1.19;;;;;;;21.47;66.09;100005.11;;;;-51
2020/07/02 05:58:04;;;;;;;1.25;1.23;;;;;;;21.47;66.16;100000.06;;;;-52
2020/07/02 06:01:05;;;;;;;1.35;1.25;;;;;;;21.47;66.09;100005.28;;;;-54
2020/07/02 06:04:05;;;;;;;1.25;1.20;;;;;;;21.47;66.11;100004.72;;;;-54
2020/07/02 06:07:05;;;;;;;1.10;1.10;;;;;;;21.47;66.08;100009.37;;;;-54
2020/07/02 06:10:05;;;;;;;1.33;1.23;;;;;;;21.47;66.13;100013.52;;;;-54
2020/07/02 06:13:05;;;;;;;1.41;1.31;;;;;;;21.47;66.13;100015.88;;;;-54
2020/07/02 06:16:05;;;;;;;1.40;1.30;;;;;;;21.47;66.05;100021.11;;;;-54
2020/07/02 06:19:05;;;;;;;1.25;1.20;;;;;;;21.46;66.11;100023.89;;;;-54
2020/07/02 06:22:05;;;;;;;1.23;1.20;;;;;;;21.46;66.11;100021.94;;;;-54
2020/07/02 06:25:05;;;;;;;1.33;1.23;;;;;;;21.47;66.13;100022.83;;;;-54
2020/07/02 06:28:05;;;;;;;1.35;1.25;;;;;;;21.46;66.11;100024.63;;;;-54
2020/07/02 06:31:05;;;;;;;1.28;1.20;;;;;;;21.46;66.10;100023.98;;;;-54
2020/07/02 06:34:05;;;;;;;1.39;1.29;;;;;;;21.46;66.11;100025.28;;;;-54
2020/07/02 06:37:05;;;;;;;1.10;1.10;;;;;;;21.46;66.06;100027.48;;;;-54
2020/07/02 06:40:05;;;;;;;1.41;1.31;;;;;;;21.46;66.07;100026.42;;;;-54
2020/07/02 06:43:05;;;;;;;1.27;1.21;;;;;;;21.46;66.13;100024.79;;;;-54
2020/07/02 06:46:04;;;;;;;1.30;1.23;;;;;;;21.47;66.11;100028.04;;;;-53
2020/07/02 06:49:04;;;;;;;1.17;1.15;;;;;;;21.46;66.06;100027.23;;;;-54
2020/07/02 06:52:04;;;;;;;1.20;1.20;;;;;;;21.46;66.08;100028.29;;;;-54
2020/07/02 06:55:05;;;;;;;1.31;1.21;;;;;;;21.46;66.12;100031.30;;;;-54
2020/07/02 06:58:05;;;;;;;1.39;1.29;;;;;;;21.46;66.09;100034.66;;;;-54
2020/07/02 07:01:05;;;;;;;1.50;1.40;;;;;;;21.46;66.08;100030.98;;;;-54
2020/07/02 07:04:05;;;;;;;1.28;1.21;;;;;;;21.45;66.13;100036.20;;;;-53
2020/07/02 07:07:05;;;;;;;1.27;1.25;;;;;;;21.45;66.14;100037.99;;;;-54
2020/07/02 07:10:05;;;;;;;1.21;1.20;;;;;;;21.45;66.13;100031.95;;;;-54
2020/07/02 07:13:04;;;;;;;1.22;1.13;;;;;;;21.45;66.12;100029.35;;;;-53
2020/07/02 07:16:05;;;;;;;1.22;1.20;;;;;;;21.45;66.09;100026.41;;;;-54
2020/07/02 07:19:05;;;;;;;1.39;1.29;;;;;;;21.44;66.19;100023.91;;;;-54
2020/07/02 07:22:05;;;;;;;1.19;1.10;;;;;;;21.45;66.15;100023.73;;;;-54
2020/07/02 07:25:05;;;;;;;1.24;1.19;;;;;;;21.44;66.15;100027.82;;;;-54
2020/07/02 07:28:05;;;;;;;1.24;1.20;;;;;;;21.44;66.17;100032.31;;;;-54
2020/07/02 07:31:05;;;;;;;1.34;1.24;;;;;;;21.44;66.17;100036.22;;;;-54
2020/07/02 07:34:05;;;;;;;1.27;1.20;;;;;;;21.44;66.20;100036.40;;;;-54
2020/07/02 07:37:05;;;;;;;1.18;1.18;;;;;;;21.44;66.20;100034.44;;;;-54
2020/07/02 07:40:05;;;;;;;1.21;1.19;;;;;;;21.43;66.20;100034.42;;;;-54
2020/07/02 07:43:05;;;;;;;1.31;1.21;;;;;;;21.43;66.20;100039.06;;;;-54
2020/07/02 07:46:05;;;;;;;2.00;1.30;;;;;;;21.43;66.55;100035.48;;;;-53
2020/07/02 07:49:04;;;;;;;2.36;1.35;;;;;;;21.45;66.69;100031.63;;;;-51
2020/07/02 07:52:05;;;;;;;2.34;1.30;;;;;;;21.47;66.63;100024.61;;;;-50
2020/07/02 07:55:05;;;;;;;1.31;1.20;;;;;;;21.49;66.75;100034.05;;;;-51
2020/07/02 07:58:05;;;;;;;3.10;1.56;;;;;;;21.51;66.73;100030.92;;;;-53
2020/07/02 08:01:04;;;;;;;1.42;1.32;;;;;;;21.53;66.74;100033.45;;;;-50
2020/07/02 08:04:05;;;;;;;2.27;1.30;;;;;;;21.54;66.75;100035.14;;;;-53
2020/07/02 08:07:05;;;;;;;6.45;1.61;;;;;;;21.56;67.09;100040.69;;;;-52
2020/07/02 08:10:04;;;;;;;6.39;1.50;;;;;;;21.57;67.28;100043.53;;;;-53
2020/07/02 08:13:05;;;;;;;8.35;1.71;;;;;;;21.60;67.61;100044.79;;;;-52
2020/07/02 08:16:05;;;;;;;9.77;1.84;;;;;;;21.63;67.59;100046.41;;;;-52
2020/07/02 08:19:04;;;;;;;3.33;1.51;;;;;;;21.64;67.36;100047.29;;;;-51
2020/07/02 08:22:04;;;;;;;6.82;1.67;;;;;;;21.64;67.38;100048.76;;;;-52
2020/07/02 08:25:05;;;;;;;8.26;1.53;;;;;;;21.65;67.39;100048.67;;;;-51
2020/07/02 08:28:04;;;;;;;7.95;1.63;;;;;;;21.66;67.28;100052.56;;;;-53
2020/07/02 08:31:05;;;;;;;3.86;1.50;;;;;;;21.68;67.33;100056.88;;;;-58
2020/07/02 08:34:05;;;;;;;3.29;1.70;;;;;;;21.69;67.21;100057.52;;;;-55
2020/07/02 08:37:05;;;;;;;4.69;1.78;;;;;;;21.70;67.34;100057.09;;;;-55
2020/07/02 08:40:04;;;;;;;4.40;1.61;;;;;;;21.72;67.41;100050.23;;;;-51
2020/07/02 08:43:05;;;;;;;3.42;1.53;;;;;;;21.72;67.48;100043.13;;;;-51
2020/07/02 08:46:04;;;;;;;4.99;1.68;;;;;;;21.73;67.43;100040.52;;;;-52
2020/07/02 08:49:05;;;;;;;8.61;1.72;;;;;;;21.75;67.34;100038.72;;;;-53
2020/07/02 08:52:05;;;;;;;3.99;1.63;;;;;;;21.76;67.45;100039.33;;;;-51
2020/07/02 08:55:05;;;;;;;6.01;1.66;;;;;;;21.76;67.49;100032.80;;;;-58
2020/07/02 08:58:05;;;;;;;6.22;1.62;;;;;;;21.77;67.41;100029.63;;;;-58
2020/07/02 09:01:05;;;;;;;4.31;1.65;;;;;;;21.77;67.42;100030.45;;;;-57
2020/07/02 09:04:05;;;;;;;3.91;1.65;;;;;;;21.79;67.22;100031.16;;;;-55
2020/07/02 09:07:04;;;;;;;5.01;1.74;;;;;;;21.80;67.27;100026.02;;;;-54
2020/07/02 09:10:05;;;;;;;4.01;1.70;;;;;;;21.82;67.31;100022.82;;;;-59
2020/07/02 09:13:05;;;;;;;6.69;1.56;;;;;;;21.82;67.32;100023.20;;;;-52
2020/07/02 09:16:04;;;;;;;2.94;1.70;;;;;;;21.83;67.30;100027.70;;;;-53
2020/07/02 09:19:05;;;;;;;5.17;1.63;;;;;;;21.84;67.33;100022.63;;;;-54
2020/07/02 09:22:05;;;;;;;7.25;1.57;;;;;;;21.84;67.24;100023.84;;;;-52
2020/07/02 09:25:05;;;;;;;4.49;1.58;;;;;;;21.85;67.12;100031.11;;;;-57
2020/07/02 09:28:05;;;;;;;5.15;1.63;;;;;;;21.86;67.21;100039.31;;;;-52
2020/07/02 09:31:05;;;;;;;4.37;1.66;;;;;;;21.86;67.02;100039.98;;;;-54
2020/07/02 09:34:05;;;;;;;4.11;1.57;;;;;;;21.85;67.16;100036.73;;;;-55
2020/07/02 09:37:04;;;;;;;2.24;1.50;;;;;;;21.85;67.15;100038.04;;;;-54
2020/07/02 09:40:04;;;;;;;4.92;1.79;;;;;;;21.85;67.19;100040.23;;;;-55
2020/07/02 09:43:05;;;;;;;6.59;1.54;;;;;;;21.84;67.20;100036.33;;;;-55
2020/07/02 09:46:05;;;;;;;3.39;1.65;;;;;;;21.85;67.17;100045.88;;;;-56
2020/07/02 09:49:05;;;;;;;2.88;1.54;;;;;;;21.86;67.04;100043.48;;;;-50
2020/07/02 09:52:05;;;;;;;3.06;1.59;;;;;;;21.87;67.04;100044.95;;;;-51
2020/07/02 09:55:05;;;;;;;2.51;1.45;;;;;;;21.88;67.13;100046.73;;;;-51
2020/07/02 09:58:05;;;;;;;4.70;1.53;;;;;;;21.89;67.16;100045.25;;;;-54
2020/07/02 10:01:05;;;;;;;4.64;1.55;;;;;;;21.90;67.10;100046.39;;;;-59
2020/07/02 10:04:04;;;;;;;3.46;1.63;;;;;;;21.90;67.09;100051.35;;;;-58
2020/07/02 10:07:05;;;;;;;3.58;1.57;;;;;;;21.91;67.11;100050.61;;;;-57
2020/07/02 10:10:05;;;;;;;3.96;1.61;;;;;;;21.92;67.08;100056.81;;;;-55
2020/07/02 10:13:05;;;;;;;4.48;1.85;;;;;;;21.93;67.06;100062.58;;;;-58
2020/07/02 10:16:05;;;;;;;2.61;1.52;;;;;;;21.93;66.91;100065.44;;;;-59
2020/07/02 10:19:05;;;;;;;8.96;1.65;;;;;;;21.92;67.04;100071.98;;;;-64
2020/07/02 10:22:05;;;;;;;5.15;1.75;;;;;;;21.92;66.95;100077.95;;;;-62
2020/07/02 10:25:05;;;;;;;6.33;1.77;;;;;;;21.91;66.92;100071.82;;;;-63
2020/07/02 10:28:05;;;;;;;3.07;1.65;;;;;;;21.91;66.89;100067.16;;;;-62
2020/07/02 10:31:05;;;;;;;4.63;1.63;;;;;;;21.90;66.87;100068.16;;;;-63
2020/07/02 10:34:05;;;;;;;3.94;1.44;;;;;;;21.91;66.73;100066.67;;;;-62
2020/07/02 10:37:04;;;;;;;3.61;1.53;;;;;;;21.90;66.76;100070.78;;;;-64
2020/07/02 10:40:05;;;;;;;2.91;1.58;;;;;;;21.90;66.70;100068.91;;;;-63
2020/07/02 10:43:05;;;;;;;5.51;1.57;;;;;;;21.89;66.66;100067.53;;;;-63
2020/07/02 10:46:05;;;;;;;3.51;1.46;;;;;;;21.89;66.60;100060.73;;;;-63
2020/07/02 10:49:05;;;;;;;5.01;1.51;;;;;;;21.89;66.63;100060.25;;;;-62
2020/07/02 10:52:05;;;;;;;3.84;1.51;;;;;;;21.88;66.60;100061.98;;;;-63
2020/07/02 10:55:05;;;;;;;5.41;1.77;;;;;;;21.88;66.60;100067.13;;;;-63
2020/07/02 10:58:05;;;;;;;3.09;1.47;;;;;;;21.88;66.58;100062.39;;;;-63
2020/07/02 11:01:05;;;;;;;3.97;1.73;;;;;;;21.88;66.56;100057.02;;;;-63
2020/07/02 11:04:04;;;;;;;1.95;1.33;;;;;;;21.87;66.49;100057.92;;;;-63
2020/07/02 11:07:05;;;;;;;2.06;1.53;;;;;;;21.87;66.53;100052.38;;;;-63
2020/07/02 11:10:05;;;;;;;5.63;1.45;;;;;;;21.86;66.50;100053.11;;;;-63
2020/07/02 11:13:04;;;;;;;2.46;1.42;;;;;;;21.86;66.51;100053.44;;;;-64
2020/07/02 11:16:04;;;;;;;2.44;1.48;;;;;;;21.86;66.46;100048.87;;;;-63
2020/07/02 11:19:05;;;;;;;3.89;1.43;;;;;;;21.86;66.49;100043.58;;;;-63
2020/07/02 11:22:05;;;;;;;2.91;1.41;;;;;;;21.86;66.47;100044.55;;;;-63
2020/07/02 11:25:05;;;;;;;2.29;1.58;;;;;;;21.85;66.54;100038.85;;;;-54
2020/07/02 11:28:04;;;;;;;2.77;1.42;;;;;;;21.86;66.48;100039.81;;;;-53
2020/07/02 11:31:04;;;;;;;4.16;1.43;;;;;;;21.88;66.48;100037.44;;;;-52
2020/07/02 11:34:05;;;;;;;8.16;1.71;;;;;;;21.89;66.73;100034.95;;;;-60
2020/07/02 11:37:05;;;;;;;9.29;1.86;;;;;;;21.90;66.81;100023.28;;;;-63
2020/07/02 11:40:05;;;;;;;4.09;1.61;;;;;;;21.91;66.81;100027.91;;;;-64
2020/07/02 11:43:05;;;;;;;8.08;1.83;;;;;;;21.92;66.80;100015.53;;;;-56
2020/07/02 11:46:05;;;;;;;14.59;2.03;;;;;;;21.93;66.85;100025.71;;;;-55
2020/07/02 11:49:04;;;;;;;5.92;1.75;;;;;;;21.93;66.84;100025.94;;;;-51
2020/07/02 11:52:04;;;;;;;5.96;1.62;;;;;;;21.96;66.88;100042.25;;;;-50
2020/07/02 11:55:05;;;;;;;5.03;1.58;;;;;;;21.96;66.88;100041.51;;;;-49
2020/07/02 11:58:04;;;;;;;5.29;1.62;;;;;;;21.97;66.85;100039.78;;;;-46
2020/07/02 12:01:05;;;;;;;3.21;1.52;;;;;;;21.97;66.91;100040.68;;;;-49
2020/07/02 12:04:05;;;;;;;4.19;1.50;;;;;;;21.97;66.90;100045.48;;;;-46
2020/07/02 12:07:05;;;;;;;4.20;1.61;;;;;;;21.98;66.95;100040.11;;;;-50
2020/07/02 12:10:04;;;;;;;7.71;1.63;;;;;;;21.98;67.30;100035.69;;;;-50
2020/07/02 12:13:04;;;;;;;10.14;1.74;;;;;;;22.00;67.22;100038.70;;;;-53
2020/07/02 12:16:04;;;;;;;9.29;1.79;;;;;;;22.02;67.32;100036.07;;;;-49
2020/07/02 12:19:05;;;;;;;6.49;1.67;;;;;;;22.03;67.25;100029.44;;;;-54
2020/07/02 12:22:05;;;;;;;5.47;2.08;;;;;;;22.04;67.29;100022.16;;;;-50
2020/07/02 12:25:05;;;;;;;6.00;1.89;;;;;;;22.04;67.42;100016.14;;;;-45
2020/07/02 12:28:04;;;;;;;8.23;2.03;;;;;;;22.05;67.28;100014.55;;;;-46
2020/07/02 12:31:04;;;;;;;7.53;1.89;;;;;;;22.06;67.37;100016.19;;;;-51
2020/07/02 12:34:04;;;;;;;6.35;1.91;;;;;;;22.06;67.30;100008.92;;;;-51
2020/07/02 12:37:05;;;;;;;6.00;1.86;;;;;;;22.07;67.35;100012.41;;;;-54
2020/07/02 12:40:05;;;;;;;4.45;1.66;;;;;;;22.08;67.25;100019.03;;;;-50
2020/07/02 12:43:04;;;;;;;7.11;1.89;;;;;;;22.08;67.36;100014.45;;;;-56
2020/07/02 12:46:04;;;;;;;5.92;1.71;;;;;;;22.08;67.33;100002.53;;;;-51
2020/07/02 12:49:17;;;;;;;6.29;1.77;;;;;;;22.09;67.23;100005.20;;;;-49
2020/07/02 12:52:05;;;;;;;5.12;1.70;;;;;;;22.10;67.29;100000.64;;;;-57
2020/07/02 12:55:05;;;;;;;5.54;1.79;;;;;;;22.11;67.14;100002.91;;;;-52
2020/07/02 12:58:05;;;;;;;5.31;1.74;;;;;;;22.10;67.19;99999.73;;;;-54
2020/07/02 13:01:04;;;;;;;5.40;1.90;;;;;;;22.11;67.22;99997.92;;;;-49
2020/07/02 13:04:05;;;;;;;4.87;1.69;;;;;;;22.12;67.08;99999.95;;;;-51
2020/07/02 13:07:05;;;;;;;4.96;1.75;;;;;;;22.13;67.07;99999.38;;;;-53
2020/07/02 13:10:04;;;;;;;4.37;1.69;;;;;;;22.13;66.81;100000.11;;;;-48
2020/07/02 13:13:04;;;;;;;6.51;1.84;;;;;;;22.12;66.81;99990.82;;;;-57
2020/07/02 13:16:05;;;;;;;8.81;1.97;;;;;;;22.12;66.76;99991.38;;;;-55
2020/07/02 13:19:05;;;;;;;3.68;1.73;;;;;;;22.12;66.67;99993.49;;;;-54
2020/07/02 13:22:05;;;;;;;5.01;1.73;;;;;;;22.12;66.60;99987.39;;;;-54
2020/07/02 13:25:04;;;;;;;6.67;1.85;;;;;;;22.12;66.73;99985.59;;;;-56
2020/07/02 13:28:04;;;;;;;6.91;1.79;;;;;;;22.13;66.59;99985.66;;;;-54
2020/07/02 13:31:05;;;;;;;3.51;1.65;;;;;;;22.13;66.65;99985.26;;;;-54
2020/07/02 13:34:05;;;;;;;5.13;1.69;;;;;;;22.14;66.67;99994.78;;;;-54
2020/07/02 13:37:05;;;;;;;3.57;1.71;;;;;;;22.15;66.71;99998.38;;;;-55
2020/07/02 13:40:05;;;;;;;5.53;1.70;;;;;;;22.15;66.57;99997.73;;;;-55
2020/07/02 13:43:05;;;;;;;3.05;1.59;;;;;;;22.15;66.56;99994.30;;;;-55
2020/07/02 13:46:04;;;;;;;3.97;1.70;;;;;;;22.15;66.49;99996.09;;;;-56
2020/07/02 13:49:04;;;;;;;8.30;1.64;;;;;;;22.15;66.49;99993.14;;;;-55
2020/07/02 13:52:04;;;;;;;5.15;1.81;;;;;;;22.16;66.51;99993.13;;;;-56
2020/07/02 13:55:05;;;;;;;3.98;1.61;;;;;;;22.16;66.57;99989.94;;;;-56
2020/07/02 13:58:05;;;;;;;3.93;1.65;;;;;;;22.14;66.52;99997.70;;;;-56
2020/07/02 14:01:05;;;;;;;2.93;1.60;;;;;;;22.13;66.52;99986.66;;;;-59
2020/07/02 14:04:05;;;;;;;5.57;1.51;;;;;;;22.12;66.56;99990.50;;;;-60
2020/07/02 14:07:04;;;;;;;2.51;1.56;;;;;;;22.11;66.58;99986.58;;;;-60
2020/07/02 14:10:05;;;;;;;3.80;1.93;;;;;;;22.10;66.47;99979.31;;;;-63
2020/07/02 14:13:05;;;;;;;7.81;1.73;;;;;;;22.10;66.58;99984.95;;;;-62
2020/07/02 14:16:05;;;;;;;3.43;1.53;;;;;;;22.09;66.61;99973.72;;;;-60
2020/07/02 14:19:05;;;;;;;4.69;1.60;;;;;;;22.08;66.52;99983.27;;;;-61
2020/07/02 14:22:04;;;;;;;2.53;1.50;;;;;;;22.08;66.56;99971.53;;;;-60
2020/07/02 14:25:05;;;;;;;2.86;1.69;;;;;;;22.07;66.57;99977.23;;;;-62
2020/07/02 14:28:04;;;;;;;4.51;1.66;;;;;;;22.07;66.53;99981.00;;;;-61
2020/07/02 14:31:04;;;;;;;2.47;1.61;;;;;;;22.07;66.48;99969.91;;;;-59
2020/07/02 14:34:04;;;;;;;2.60;1.51;;;;;;;22.07;66.43;99978.48;;;;-60
2020/07/02 14:37:05;;;;;;;4.77;1.50;;;;;;;22.06;66.54;99970.66;;;;-59
2020/07/02 14:40:04;;;;;;;4.31;1.74;;;;;;;22.08;66.56;99968.52;;;;-57
2020/07/02 14:43:04;;;;;;;2.50;1.38;;;;;;;22.09;66.56;99972.16;;;;-56
2020/07/02 14:46:04;;;;;;;1.81;1.49;;;;;;;22.10;66.55;99968.14;;;;-56
2020/07/02 14:49:04;;;;;;;4.03;1.55;;;;;;;22.10;66.62;99969.63;;;;-57
2020/07/02 14:52:05;;;;;;;2.84;1.61;;;;;;;22.10;66.70;99971.66;;;;-55
2020/07/02 14:55:04;;;;;;;2.53;1.68;;;;;;;22.11;66.70;99969.27;;;;-57
2020/07/02 14:58:05;;;;;;;2.25;1.47;;;;;;;22.12;66.66;99970.75;;;;-58
2020/07/02 15:01:05;;;;;;;2.96;1.47;;;;;;;22.13;66.72;99968.69;;;;-56
2020/07/02 15:04:04;;;;;;;5.66;1.65;;;;;;;22.15;66.81;99970.22;;;;-53
2020/07/02 15:07:05;;;;;;;5.76;1.83;;;;;;;22.14;66.72;99966.20;;;;-53
2020/07/02 15:10:05;;;;;;;4.64;1.79;;;;;;;22.16;66.63;99965.55;;;;-56
2020/07/02 15:13:04;;;;;;;4.39;1.63;;;;;;;22.16;66.62;99961.13;;;;-53
2020/07/02 15:16:05;;;;;;;2.19;1.57;;;;;;;22.15;66.62;99971.67;;;;-59
2020/07/02 15:19:05;;;;;;;5.71;1.60;;;;;;;22.16;66.65;99970.91;;;;-59
2020/07/02 15:22:04;;;;;;;4.44;1.67;;;;;;;22.17;66.71;99970.52;;;;-53
2020/07/02 15:25:05;;;;;;;6.37;1.65;;;;;;;22.17;66.73;99961.80;;;;-60
2020/07/02 15:28:04;;;;;;;8.79;1.70;;;;;;;22.17;66.83;99961.45;;;;-51
2020/07/02 15:31:04;;;;;;;13.39;1.86;;;;;;;22.17;66.49;99963.75;;;;-59
2020/07/02 15:34:05;;;;;;;5.97;1.67;;;;;;;22.18;66.23;99962.67;;;;-54
2020/07/02 15:37:04;;;;;;;7.70;1.97;;;;;;;22.17;66.18;99956.23;;;;-56
2020/07/02 15:40:05;;;;;;;6.06;1.70;;;;;;;22.17;66.27;99962.34;;;;-57
2020/07/02 15:43:05;;;;;;;9.87;2.03;;;;;;;22.18;66.37;99962.58;;;;-58
2020/07/02 15:46:04;;;;;;;8.80;1.87;;;;;;;22.17;66.25;99959.42;;;;-59
2020/07/02 15:49:04;;;;;;;5.95;1.68;;;;;;;22.16;66.25;99962.77;;;;-61
2020/07/02 15:52:04;;;;;;;6.89;1.83;;;;;;;22.15;66.27;99959.77;;;;-60
2020/07/02 15:55:05;;;;;;;5.51;1.87;;;;;;;22.13;66.15;99959.62;;;;-59
2020/07/02 15:58:05;;;;;;;5.56;1.87;;;;;;;22.13;66.28;99957.44;;;;-59
2020/07/02 16:01:04;;;;;;;5.29;1.85;;;;;;;22.12;66.14;99958.33;;;;-61
2020/07/02 16:04:04;;;;;;;4.11;1.57;;;;;;;22.11;66.22;99952.88;;;;-60
2020/07/02 16:07:04;;;;;;;3.60;1.59;;;;;;;22.10;66.12;99959.67;;;;-60
2020/07/02 16:10:05;;;;;;;4.22;1.61;;;;;;;22.09;66.09;99953.38;;;;-60
2020/07/02 16:13:05;;;;;;;3.00;1.51;;;;;;;22.09;66.04;99959.92;;;;-61
2020/07/02 16:16:05;;;;;;;4.48;1.63;;;;;;;22.08;66.13;99964.02;;;;-60
2020/07/02 16:19:04;;;;;;;4.66;1.50;;;;;;;22.08;66.03;99965.90;;;;-60
2020/07/02 16:22:04;;;;;;;4.61;1.55;;;;;;;22.07;66.05;99966.88;;;;-61
2020/07/02 16:25:04;;;;;;;3.71;1.53;;;;;;;22.06;66.06;99969.11;;;;-59
2020/07/02 16:28:05;;;;;;;3.75;1.52;;;;;;;22.06;65.93;99970.66;;;;-59
2020/07/02 16:31:04;;;;;;;5.79;1.60;;;;;;;22.06;65.98;99969.83;;;;-59
2020/07/02 16:34:04;;;;;;;4.15;1.60;;;;;;;22.05;65.93;99974.25;;;;-59
2020/07/02 16:37:04;;;;;;;3.72;1.55;;;;;;;22.05;65.99;99971.30;;;;-61
2020/07/02 16:40:04;;;;;;;3.14;1.66;;;;;;;22.07;65.93;99970.48;;;;-61
2020/07/02 16:43:04;;;;;;;4.37;1.61;;;;;;;22.08;65.75;99973.72;;;;-57
2020/07/02 16:46:04;;;;;;;3.59;1.41;;;;;;;22.08;65.77;99972.42;;;;-55
2020/07/02 16:49:04;;;;;;;2.75;1.43;;;;;;;22.08;65.97;99979.94;;;;-53